Time;durP1;ratioP1;P1;durP2;ratioP2;P2;SDS_P1;SDS_P2;PMS_P1;PMS_P2;Temp;Humidity;BMP_temperature;BMP_pressure;BME280_temperature;BME280_humidity;BME280_pressure;Samples;Min_cycle;Max_cycle;Signal;HPM_P1;HPM_P2
2022/01/11 00:00:36;;;;;;;3.75;3.15;;;;;;;;;;5044949;28;20166;-35
2022/01/11 00:03:02;;;;;;;4.45;3.35;;;;;;;;;;5044576;28;20070;-37
2022/01/11 00:05:33;;;;;;;3.85;3.28;;;;;;;;;;5045094;28;20112;-31
2022/01/11 00:07:58;;;;;;;4.82;3.60;;;;;;;;;;5044289;28;20064;-37
2022/01/11 00:10:30;;;;;;;5.03;3.47;;;;;;;;;;5044889;28;20526;-36
2022/01/11 00:12:56;;;;;;;3.50;3.03;;;;;;;;;;5044898;28;20036;-36
2022/01/11 00:15:22;;;;;;;4.68;3.20;;;;;;;;;;5044691;28;20029;-34
2022/01/11 00:17:48;;;;;;;4.65;3.47;;;;;;;;;;5044847;28;20025;-39
2022/01/11 00:20:15;;;;;;;4.07;3.22;;;;;;;;;;5043431;28;20530;-38
2022/01/11 00:24:26;;;;;;;4.10;3.28;;;;;;;;;;5043446;28;20108;-38
2022/01/11 00:25:28;;;;;;;3.55;3.10;;;;;;;;;;5044263;28;20033;-33
2022/01/11 00:27:54;;;;;;;5.07;3.30;;;;;;;;;;5026687;28;20021;-36
2022/01/11 00:30:20;;;;;;;4.55;3.45;;;;;;;;;;5044409;28;20027;-38
2022/01/11 00:32:51;;;;;;;4.63;3.50;;;;;;;;;;5043978;28;20033;-33
2022/01/11 00:35:21;;;;;;;4.20;2.85;;;;;;;;;;5043944;28;20033;-36
2022/01/11 00:37:47;;;;;;;3.83;3.00;;;;;;;;;;5038673;28;20045;-35
2022/01/11 00:40:12;;;;;;;3.40;2.67;;;;;;;;;;5024573;28;20068;-36
2022/01/11 00:42:38;;;;;;;3.20;2.63;;;;;;;;;;5024208;28;20035;-35
2022/01/11 00:45:04;;;;;;;3.63;2.72;;;;;;;;;;5024895;28;20022;-33
2022/01/11 00:47:30;;;;;;;3.30;2.50;;;;;;;;;;5024162;28;20061;-36
2022/01/11 00:49:56;;;;;;;3.75;2.80;;;;;;;;;;5025369;28;20049;-35
2022/01/11 00:52:21;;;;;;;4.05;3.00;;;;;;;;;;5028539;28;20034;-38
2022/01/11 00:54:48;;;;;;;3.20;2.78;;;;;;;;;;5027201;28;20037;-38
2022/01/11 00:57:14;;;;;;;3.50;2.65;;;;;;;;;;5028070;28;20068;-34
2022/01/11 00:59:40;;;;;;;3.60;2.90;;;;;;;;;;5027837;28;20079;-30
2022/01/11 01:02:05;;;;;;;3.05;2.63;;;;;;;;;;5027956;28;20041;-40
2022/01/11 01:04:31;;;;;;;2.65;2.33;;;;;;;;;;5028138;28;20036;-30
2022/01/11 01:06:56;;;;;;;2.95;2.28;;;;;;;;;;5028084;28;20052;-39
2022/01/11 01:09:24;;;;;;;3.92;2.78;;;;;;;;;;5028175;28;20053;-34
2022/01/11 01:11:51;;;;;;;4.63;2.67;;;;;;;;;;5028130;28;20571;-35
2022/01/11 01:14:17;;;;;;;3.80;2.42;;;;;;;;;;5026915;28;20029;-39
2022/01/11 01:16:43;;;;;;;4.03;2.83;;;;;;;;;;5026367;28;20454;-34
2022/01/11 01:19:08;;;;;;;3.83;2.47;;;;;;;;;;5027162;28;20037;-34
2022/01/11 01:21:38;;;;;;;2.72;2.28;;;;;;;;;;5027536;28;20476;-34
2022/01/11 01:24:05;;;;;;;3.08;2.53;;;;;;;;;;5027610;28;20040;-35
2022/01/11 01:26:31;;;;;;;3.47;2.42;;;;;;;;;;5025911;28;20036;-32
2022/01/11 01:28:59;;;;;;;2.80;2.13;;;;;;;;;;5027442;28;20029;-32
2022/01/11 01:31:25;;;;;;;3.28;2.50;;;;;;;;;;5026257;28;20112;-33
2022/01/11 01:33:50;;;;;;;2.80;2.50;;;;;;;;;;5030353;28;20579;-39
2022/01/11 01:36:16;;;;;;;4.55;2.40;;;;;;;;;;5046783;28;20029;-34
2022/01/11 01:38:41;;;;;;;2.55;2.33;;;;;;;;;;5047361;28;20024;-39
2022/01/11 01:41:16;;;;;;;3.53;2.67;;;;;;;;;;5047145;28;20025;-35
2022/01/11 01:43:42;;;;;;;2.88;2.42;;;;;;;;;;5045624;28;20025;-36
2022/01/11 01:46:08;;;;;;;2.95;2.65;;;;;;;;;;5046368;28;20104;-34
2022/01/11 01:48:35;;;;;;;3.58;2.30;;;;;;;;;;5047260;28;20940;-35
2022/01/11 01:51:01;;;;;;;2.67;2.30;;;;;;;;;;5047016;28;20490;-33
2022/01/11 01:53:27;;;;;;;2.90;2.50;;;;;;;;;;5047045;28;20036;-39
2022/01/11 01:55:52;;;;;;;3.28;2.60;;;;;;;;;;5045617;28;20778;-31
2022/01/11 01:58:18;;;;;;;2.83;2.45;;;;;;;;;;5046949;28;20063;-36
2022/01/11 02:00:50;;;;;;;2.60;2.20;;;;;;;;;;5045215;28;20056;-33
2022/01/11 02:03:17;;;;;;;2.80;2.25;;;;;;;;;;5046732;28;20501;-32
2022/01/11 02:05:43;;;;;;;2.90;2.42;;;;;;;;;;5046987;28;20414;-30
2022/01/11 02:08:08;;;;;;;2.78;2.35;;;;;;;;;;5046471;28;20049;-39
2022/01/11 02:10:36;;;;;;;3.45;2.47;;;;;;;;;;5046444;28;20055;-31
2022/01/11 02:13:02;;;;;;;2.78;2.17;;;;;;;;;;5046334;28;20032;-33
2022/01/11 02:15:28;;;;;;;2.92;2.38;;;;;;;;;;5046405;28;20028;-35
2022/01/11 02:17:53;;;;;;;2.30;2.10;;;;;;;;;;5046773;28;20411;-32
2022/01/11 02:20:19;;;;;;;3.28;2.55;;;;;;;;;;5046224;28;20033;-30
2022/01/11 02:22:44;;;;;;;2.47;1.98;;;;;;;;;;5046458;28;20135;-30
2022/01/11 02:25:10;;;;;;;2.63;2.08;;;;;;;;;;5046100;28;20024;-31
2022/01/11 02:27:36;;;;;;;2.85;2.05;;;;;;;;;;5046080;28;20163;-34
2022/01/11 02:30:02;;;;;;;2.55;2.00;;;;;;;;;;5045109;28;20075;-37
2022/01/11 02:32:28;;;;;;;2.60;2.00;;;;;;;;;;5044809;28;20511;-32
2022/01/11 02:34:53;;;;;;;2.95;2.00;;;;;;;;;;5046151;28;20025;-35
2022/01/11 02:37:19;;;;;;;2.85;2.20;;;;;;;;;;5046165;28;20495;-33
2022/01/11 02:39:48;;;;;;;2.65;2.08;;;;;;;;;;5046135;28;20036;-32
2022/01/11 02:42:13;;;;;;;2.78;2.10;;;;;;;;;;5045848;28;20036;-37
2022/01/11 02:44:38;;;;;;;2.40;2.00;;;;;;;;;;5046000;28;20029;-33
2022/01/11 02:47:04;;;;;;;3.33;1.80;;;;;;;;;;5044805;28;20110;-37
2022/01/11 02:49:30;;;;;;;2.33;1.80;;;;;;;;;;5045276;28;20116;-33
2022/01/11 02:51:56;;;;;;;3.47;2.35;;;;;;;;;;5045706;28;20021;-35
2022/01/11 02:54:22;;;;;;;2.35;1.98;;;;;;;;;;5045607;28;20025;-32
2022/01/11 02:56:47;;;;;;;2.83;2.00;;;;;;;;;;5045436;28;20111;-37
2022/01/11 02:59:13;;;;;;;3.00;2.10;;;;;;;;;;5044935;28;20112;-34
2022/01/11 03:01:38;;;;;;;2.03;1.63;;;;;;;;;;5045571;28;20060;-38
2022/01/11 03:04:04;;;;;;;2.60;1.73;;;;;;;;;;5045678;28;20036;-39
2022/01/11 03:06:29;;;;;;;2.58;1.80;;;;;;;;;;5045757;28;20033;-36
2022/01/11 03:08:55;;;;;;;2.88;1.77;;;;;;;;;;5045569;28;20053;-34
2022/01/11 03:11:21;;;;;;;2.20;1.73;;;;;;;;;;5045204;28;20672;-32
2022/01/11 03:13:47;;;;;;;2.00;1.60;;;;;;;;;;5044844;28;20028;-32
2022/01/11 03:16:13;;;;;;;1.90;1.60;;;;;;;;;;5045492;28;20120;-36
2022/01/11 03:18:39;;;;;;;1.80;1.60;;;;;;;;;;5045194;28;20059;-34
2022/01/11 03:21:05;;;;;;;2.30;1.70;;;;;;;;;;5045156;28;20025;-35
2022/01/11 03:23:31;;;;;;;1.90;1.58;;;;;;;;;;5044870;28;20095;-35
2022/01/11 03:26:00;;;;;;;1.92;1.60;;;;;;;;;;5044207;28;20021;-37
2022/01/11 03:28:26;;;;;;;2.20;1.80;;;;;;;;;;5044822;28;20037;-32
2022/01/11 03:30:52;;;;;;;1.80;1.58;;;;;;;;;;5045247;28;20104;-34
2022/01/11 03:33:17;;;;;;;2.50;1.60;;;;;;;;;;5045239;28;20040;-35
2022/01/11 03:35:43;;;;;;;1.88;1.58;;;;;;;;;;5043450;28;20029;-35
2022/01/11 03:38:10;;;;;;;2.72;1.70;;;;;;;;;;5045149;28;20033;-36
2022/01/11 03:40:35;;;;;;;2.60;1.90;;;;;;;;;;5045014;28;20094;-35
2022/01/11 03:43:01;;;;;;;2.22;1.77;;;;;;;;;;5044032;28;20574;-33
2022/01/11 03:45:26;;;;;;;2.35;1.77;;;;;;;;;;5044938;28;20028;-37
2022/01/11 03:47:54;;;;;;;2.00;1.60;;;;;;;;;;5045119;28;20039;-35
2022/01/11 03:50:20;;;;;;;1.95;1.63;;;;;;;;;;5044848;28;20118;-36
2022/01/11 03:52:46;;;;;;;1.88;1.50;;;;;;;;;;5044953;28;20025;-37
2022/01/11 03:55:21;;;;;;;2.42;1.65;;;;;;;;;;5045018;28;20040;-38
2022/01/11 03:57:47;;;;;;;2.08;1.65;;;;;;;;;;5044986;28;20028;-30
2022/01/11 04:00:18;;;;;;;1.95;1.50;;;;;;;;;;5044846;28;20048;-33
2022/01/11 04:02:44;;;;;;;2.30;1.67;;;;;;;;;;5044709;28;20029;-40
2022/01/11 04:05:12;;;;;;;1.63;1.45;;;;;;;;;;5042380;28;20055;-30
2022/01/11 04:07:37;;;;;;;2.35;1.60;;;;;;;;;;5036692;28;20499;-37
2022/01/11 04:10:03;;;;;;;1.77;1.50;;;;;;;;;;5044325;28;20052;-39
2022/01/11 04:12:29;;;;;;;1.70;1.50;;;;;;;;;;5044034;28;20143;-31
2022/01/11 04:14:54;;;;;;;2.03;1.50;;;;;;;;;;5044883;28;20060;-30
2022/01/11 04:17:20;;;;;;;1.85;1.42;;;;;;;;;;5044358;28;20533;-36
2022/01/11 04:19:45;;;;;;;1.60;1.20;;;;;;;;;;5044536;28;20024;-34
2022/01/11 04:22:11;;;;;;;2.78;1.42;;;;;;;;;;5039737;28;20048;-37
2022/01/11 04:24:36;;;;;;;3.33;1.73;;;;;;;;;;5031671;28;20037;-34
2022/01/11 04:27:02;;;;;;;2.75;1.50;;;;;;;;;;5033785;28;20037;-34
2022/01/11 04:29:28;;;;;;;8.35;1.77;;;;;;;;;;5033774;28;20064;-31
2022/01/11 04:31:53;;;;;;;2.22;1.50;;;;;;;;;;5046456;28;20040;-34
2022/01/11 04:34:19;;;;;;;1.60;1.33;;;;;;;;;;5045568;28;20032;-32
2022/01/11 04:36:44;;;;;;;1.33;1.05;;;;;;;;;;5040323;28;20092;-36
2022/01/11 04:39:11;;;;;;;2.72;1.10;;;;;;;;;;5035602;28;20061;-34
2022/01/11 04:41:37;;;;;;;5.72;1.55;;;;;;;;;;5039794;28;20021;-35
2022/01/11 04:44:03;;;;;;;2.15;1.35;;;;;;;;;;5031667;28;20419;-34
2022/01/11 04:46:28;;;;;;;1.85;1.30;;;;;;;;;;5026601;28;20021;-33
2022/01/11 04:48:54;;;;;;;1.88;1.40;;;;;;;;;;5026010;28;20032;-33
2022/01/11 04:51:20;;;;;;;1.30;1.10;;;;;;;;;;5026204;28;20036;-36
2022/01/11 04:53:46;;;;;;;1.80;1.30;;;;;;;;;;5026137;28;20508;-31
2022/01/11 04:56:12;;;;;;;1.58;1.38;;;;;;;;;;5025580;28;20508;-29
2022/01/11 04:58:37;;;;;;;1.55;1.30;;;;;;;;;;5025805;28;20033;-35
2022/01/11 05:01:03;;;;;;;2.33;1.42;;;;;;;;;;5025754;28;20084;-32
2022/01/11 05:03:28;;;;;;;2.53;1.15;;;;;;;;;;5025722;28;20041;-36
2022/01/11 05:05:54;;;;;;;6.80;1.25;;;;;;;;;;5025866;28;20040;-34
2022/01/11 05:08:19;;;;;;;3.90;1.23;;;;;;;;;;5024978;28;20489;-37
2022/01/11 05:10:45;;;;;;;1.65;1.30;;;;;;;;;;5025923;28;20025;-36
2022/01/11 05:13:11;;;;;;;3.13;1.02;;;;;;;;;;5025446;28;20393;-33
2022/01/11 05:15:37;;;;;;;1.40;1.10;;;;;;;;;;5025734;28;20087;-30
2022/01/11 05:18:03;;;;;;;1.42;1.00;;;;;;;;;;5025307;28;20033;-35
2022/01/11 05:20:28;;;;;;;2.25;1.08;;;;;;;;;;5025447;28;20107;-36
2022/01/11 05:22:54;;;;;;;4.20;1.00;;;;;;;;;;5025468;28;20038;-34
2022/01/11 05:25:20;;;;;;;2.60;1.27;;;;;;;;;;5024880;28;20021;-33
2022/01/11 05:27:46;;;;;;;3.95;1.00;;;;;;;;;;5025236;28;20087;-34
2022/01/11 05:30:12;;;;;;;3.55;1.67;;;;;;;;;;5024597;28;20041;-32
2022/01/11 05:32:38;;;;;;;4.38;1.33;;;;;;;;;;5025354;28;20098;-38
2022/01/11 05:35:04;;;;;;;10.30;1.90;;;;;;;;;;5025035;28;20415;-38
2022/01/11 05:37:29;;;;;;;9.98;1.38;;;;;;;;;;5032477;28;20111;-32
2022/01/11 05:39:55;;;;;;;5.03;1.60;;;;;;;;;;5044357;28;20656;-35
2022/01/11 05:42:22;;;;;;;5.63;1.60;;;;;;;;;;5043192;28;20071;-31
2022/01/11 05:44:47;;;;;;;8.13;1.80;;;;;;;;;;5044270;28;20025;-32
2022/01/11 05:47:13;;;;;;;5.35;2.03;;;;;;;;;;5040075;28;20030;-30
2022/01/11 05:49:39;;;;;;;5.22;2.38;;;;;;;;;;5024099;28;20028;-34
2022/01/11 05:52:04;;;;;;;3.13;2.10;;;;;;;;;;5024061;28;20530;-34
2022/01/11 05:54:30;;;;;;;5.03;2.00;;;;;;;;;;5024363;28;20022;-39
2022/01/11 05:56:55;;;;;;;3.08;1.85;;;;;;;;;;5024592;28;20067;-38
2022/01/11 05:59:21;;;;;;;3.55;2.10;;;;;;;;;;5024575;28;20079;-37
2022/01/11 06:01:47;;;;;;;4.15;1.80;;;;;;;;;;5024085;28;20037;-36
2022/01/11 06:04:12;;;;;;;3.28;1.80;;;;;;;;;;5024324;28;20038;-39
2022/01/11 06:06:38;;;;;;;4.47;2.22;;;;;;;;;;5024324;28;20029;-39
2022/01/11 06:09:03;;;;;;;3.67;2.08;;;;;;;;;;5023963;28;20045;-38
2022/01/11 06:11:29;;;;;;;3.28;1.88;;;;;;;;;;5022742;28;20037;-34
2022/01/11 06:13:55;;;;;;;5.35;1.95;;;;;;;;;;5025122;28;20030;-37
2022/01/11 06:16:21;;;;;;;4.13;2.00;;;;;;;;;;5024564;28;20762;-40
2022/01/11 06:18:47;;;;;;;3.13;1.95;;;;;;;;;;5028643;28;20032;-34
2022/01/11 06:21:13;;;;;;;4.15;2.03;;;;;;;;;;5042759;28;20538;-39
2022/01/11 06:23:38;;;;;;;4.68;1.80;;;;;;;;;;5044088;28;20033;-33
2022/01/11 06:26:04;;;;;;;5.07;1.90;;;;;;;;;;5043798;28;20111;-33
2022/01/11 06:28:29;;;;;;;3.15;1.80;;;;;;;;;;5043863;28;20033;-36
2022/01/11 06:30:55;;;;;;;2.58;1.70;;;;;;;;;;5043741;28;20024;-32
2022/01/11 06:33:20;;;;;;;2.03;1.75;;;;;;;;;;5037649;28;20029;-31
2022/01/11 06:35:46;;;;;;;3.63;1.90;;;;;;;;;;5036919;28;20729;-35
2022/01/11 06:38:11;;;;;;;5.55;2.00;;;;;;;;;;5028100;28;20037;-36
2022/01/11 06:40:37;;;;;;;5.88;2.00;;;;;;;;;;5030640;28;20914;-39
2022/01/11 06:43:02;;;;;;;4.53;2.10;;;;;;;;;;5043413;28;20035;-38
2022/01/11 06:45:28;;;;;;;3.50;2.05;;;;;;;;;;5042901;28;20025;-30
2022/01/11 06:47:54;;;;;;;5.38;1.63;;;;;;;;;;5032073;28;20578;-37
2022/01/11 06:50:20;;;;;;;3.60;1.45;;;;;;;;;;5031014;28;20086;-32
2022/01/11 06:52:45;;;;;;;2.45;1.60;;;;;;;;;;5042788;28;20029;-38
2022/01/11 06:55:11;;;;;;;3.05;1.73;;;;;;;;;;5036094;28;20029;-32
2022/01/11 06:57:37;;;;;;;3.25;1.70;;;;;;;;;;5023339;28;20458;-33
2022/01/11 07:00:06;;;;;;;3.10;1.63;;;;;;;;;;5022890;28;20033;-36
2022/01/11 07:02:32;;;;;;;3.03;1.85;;;;;;;;;;5021501;28;20044;-33
2022/01/11 07:04:57;;;;;;;3.97;2.15;;;;;;;;;;5025204;28;20021;-35
2022/01/11 07:07:23;;;;;;;3.28;1.90;;;;;;;;;;5025126;28;20037;-39
2022/01/11 07:09:48;;;;;;;4.90;2.33;;;;;;;;;;5024910;28;20053;-35
2022/01/11 07:12:14;;;;;;;5.88;2.50;;;;;;;;;;5026827;28;20029;-39
2022/01/11 07:14:39;;;;;;;6.68;2.55;;;;;;;;;;5045164;28;20443;-35
2022/01/11 07:17:05;;;;;;;9.00;2.58;;;;;;;;;;5029430;28;20087;-36
2022/01/11 07:19:30;;;;;;;9.23;3.10;;;;;;;;;;5040391;28;20037;-35
2022/01/11 07:21:59;;;;;;;7.63;2.75;;;;;;;;;;5045261;28;20033;-33
2022/01/11 07:24:24;;;;;;;4.93;2.55;;;;;;;;;;5043793;28;20020;-34
2022/01/11 07:26:50;;;;;;;3.75;2.13;;;;;;;;;;5044155;28;20039;-33
2022/01/11 07:29:15;;;;;;;5.10;2.63;;;;;;;;;;5043954;28;20025;-36
2022/01/11 07:31:41;;;;;;;6.40;2.85;;;;;;;;;;5043526;28;20029;-37
2022/01/11 07:34:07;;;;;;;5.15;2.40;;;;;;;;;;5043619;28;20028;-36
2022/01/11 07:36:33;;;;;;;4.13;2.30;;;;;;;;;;5043846;28;20094;-38
2022/01/11 07:38:58;;;;;;;5.13;2.42;;;;;;;;;;5042908;28;20430;-36
2022/01/11 07:41:24;;;;;;;4.45;2.40;;;;;;;;;;5043101;28;20036;-34
2022/01/11 07:43:49;;;;;;;6.63;2.63;;;;;;;;;;5043803;28;20061;-40
2022/01/11 07:46:15;;;;;;;4.22;2.35;;;;;;;;;;5043857;28;20044;-37
2022/01/11 07:48:41;;;;;;;5.90;2.38;;;;;;;;;;5043148;28;20029;-32
2022/01/11 07:51:06;;;;;;;4.55;2.60;;;;;;;;;;5043547;28;20033;-38
2022/01/11 07:53:32;;;;;;;4.30;2.53;;;;;;;;;;5044145;28;20021;-37
2022/01/11 07:55:57;;;;;;;4.40;2.92;;;;;;;;;;5044810;28;20025;-38
2022/01/11 07:58:23;;;;;;;3.90;2.60;;;;;;;;;;5044205;28;20027;-39
2022/01/11 08:00:48;;;;;;;3.28;2.45;;;;;;;;;;5045028;28;20069;-36
2022/01/11 08:03:14;;;;;;;6.95;2.97;;;;;;;;;;5044754;28;20037;-38
2022/01/11 08:05:39;;;;;;;4.72;2.83;;;;;;;;;;5037592;28;20134;-36
2022/01/11 08:08:05;;;;;;;5.43;2.85;;;;;;;;;;5025154;28;20056;-32
2022/01/11 08:10:31;;;;;;;3.78;2.70;;;;;;;;;;5024548;28;20056;-34
2022/01/11 08:12:56;;;;;;;3.78;2.65;;;;;;;;;;5025018;28;20021;-33
2022/01/11 08:15:22;;;;;;;3.17;2.22;;;;;;;;;;5024766;28;20025;-37
2022/01/11 08:17:47;;;;;;;5.05;2.58;;;;;;;;;;5024322;28;20029;-35
2022/01/11 08:20:13;;;;;;;3.80;2.90;;;;;;;;;;5023478;28;20484;-37
2022/01/11 08:22:39;;;;;;;6.20;2.80;;;;;;;;;;5024765;28;20025;-36
2022/01/11 08:25:05;;;;;;;4.75;2.60;;;;;;;;;;5024761;28;20041;-34
2022/01/11 08:27:30;;;;;;;4.28;2.90;;;;;;;;;;5023921;28;20040;-38
2022/01/11 08:29:56;;;;;;;3.70;2.50;;;;;;;;;;5024526;28;20033;-36
2022/01/11 08:32:22;;;;;;;3.95;2.53;;;;;;;;;;5024682;28;20029;-33
2022/01/11 08:34:48;;;;;;;4.15;2.10;;;;;;;;;;5041915;28;20033;-37
2022/01/11 08:37:14;;;;;;;3.13;2.20;;;;;;;;;;5044076;28;20479;-34
2022/01/11 08:39:40;;;;;;;3.35;2.60;;;;;;;;;;5044497;28;20025;-34
2022/01/11 08:42:08;;;;;;;3.42;2.33;;;;;;;;;;5044366;28;20083;-35
2022/01/11 08:44:34;;;;;;;4.65;2.47;;;;;;;;;;5044280;28;20044;-34
2022/01/11 08:46:59;;;;;;;3.67;2.50;;;;;;;;;;5044606;28;20639;-36
2022/01/11 08:49:25;;;;;;;3.80;2.75;;;;;;;;;;5043899;28;20526;-37
2022/01/11 08:51:50;;;;;;;4.20;2.60;;;;;;;;;;5044702;28;20032;-37
2022/01/11 08:54:18;;;;;;;3.25;2.35;;;;;;;;;;5044299;28;20017;-35
2022/01/11 08:56:44;;;;;;;4.25;2.45;;;;;;;;;;5044727;28;20034;-37
2022/01/11 08:59:10;;;;;;;3.47;2.30;;;;;;;;;;5044160;28;20515;-39
2022/01/11 09:01:35;;;;;;;4.10;2.20;;;;;;;;;;5031267;28;20034;-38
2022/01/11 09:04:01;;;;;;;2.95;2.10;;;;;;;;;;5023214;28;20036;-35
2022/01/11 09:06:27;;;;;;;3.10;2.42;;;;;;;;;;5024203;28;20538;-33
2022/01/11 09:08:52;;;;;;;3.45;2.08;;;;;;;;;;5022748;28;20076;-33
2022/01/11 09:11:18;;;;;;;3.70;2.17;;;;;;;;;;5025147;28;20106;-34
2022/01/11 09:13:44;;;;;;;3.75;2.42;;;;;;;;;;5028398;28;20033;-32
2022/01/11 09:16:11;;;;;;;4.10;2.15;;;;;;;;;;5028197;28;20238;-34
2022/01/11 09:18:37;;;;;;;3.90;2.17;;;;;;;;;;5027614;28;20037;-39
2022/01/11 09:21:03;;;;;;;2.78;1.98;;;;;;;;;;5027887;28;20108;-38
2022/01/11 09:23:29;;;;;;;1.90;1.60;;;;;;;;;;5027416;28;20067;-32
2022/01/11 09:25:55;;;;;;;2.47;1.80;;;;;;;;;;5026747;28;20025;-38
2022/01/11 09:28:21;;;;;;;3.17;1.90;;;;;;;;;;5027395;28;20022;-32
2022/01/11 09:30:46;;;;;;;3.13;2.15;;;;;;;;;;5027440;28;20104;-33
2022/01/11 09:33:13;;;;;;;2.30;1.80;;;;;;;;;;5027365;28;20033;-33
2022/01/11 09:35:38;;;;;;;2.58;2.00;;;;;;;;;;5027623;28;20618;-37
2022/01/11 09:38:04;;;;;;;3.53;2.08;;;;;;;;;;5027860;28;20033;-35
2022/01/11 09:40:29;;;;;;;2.63;1.80;;;;;;;;;;5027629;28;20076;-36
2022/01/11 09:42:55;;;;;;;2.33;1.75;;;;;;;;;;5027425;28;20029;-34
2022/01/11 09:45:20;;;;;;;4.47;2.28;;;;;;;;;;5027400;28;20025;-34
2022/01/11 09:47:46;;;;;;;2.38;1.60;;;;;;;;;;5027406;28;20030;-30
2022/01/11 09:50:12;;;;;;;2.63;2.20;;;;;;;;;;5027093;28;20025;-34
2022/01/11 09:52:38;;;;;;;2.72;2.03;;;;;;;;;;5027036;28;20083;-36
2022/01/11 09:55:05;;;;;;;1.95;1.70;;;;;;;;;;5026457;28;20032;-36
2022/01/11 09:57:31;;;;;;;4.60;1.90;;;;;;;;;;5026633;28;20104;-36
2022/01/11 09:59:56;;;;;;;2.45;1.77;;;;;;;;;;5027267;28;20485;-37
2022/01/11 10:02:22;;;;;;;2.50;1.85;;;;;;;;;;5026834;28;20479;-33
2022/01/11 10:04:54;;;;;;;2.08;1.60;;;;;;;;;;5026174;28;20021;-33
2022/01/11 10:07:19;;;;;;;2.97;2.17;;;;;;;;;;5025383;28;20421;-36
2022/01/11 10:09:48;;;;;;;1.88;1.65;;;;;;;;;;5007799;28;20362;-39
2022/01/11 10:12:15;;;;;;;3.42;1.80;;;;;;;;;;5026049;28;20031;-37
2022/01/11 10:14:53;;;;;;;4.75;2.05;;;;;;;;;;5026984;28;20033;-37
2022/01/11 10:17:24;;;;;;;2.45;1.88;;;;;;;;;;5026718;28;20187;-35
2022/01/11 10:20:04;;;;;;;2.55;1.83;;;;;;;;;;5026727;28;20026;-37
2022/01/11 10:22:30;;;;;;;2.28;2.03;;;;;;;;;;5026330;28;20061;-37
2022/01/11 10:24:56;;;;;;;2.83;2.10;;;;;;;;;;5026992;28;20518;-32
2022/01/11 10:27:25;;;;;;;3.00;2.10;;;;;;;;;;5026419;28;20033;-36
2022/01/11 10:29:55;;;;;;;2.67;2.10;;;;;;;;;;5026403;28;20064;-38
2022/01/11 10:32:21;;;;;;;2.50;2.10;;;;;;;;;;5026389;28;20125;-37
2022/01/11 10:34:49;;;;;;;3.20;2.22;;;;;;;;;;5026540;28;20061;-37
2022/01/11 10:37:41;;;;;;;3.22;2.20;;;;;;;;;;5026519;28;20601;-32
2022/01/11 10:40:22;;;;;;;3.53;2.28;;;;;;;;;;5025189;28;20554;-37
2022/01/11 10:42:52;;;;;;;2.78;2.05;;;;;;;;;;5026131;28;20029;-35
2022/01/11 10:45:21;;;;;;;2.05;1.77;;;;;;;;;;5024884;28;20026;-35
2022/01/11 10:47:51;;;;;;;2.53;2.15;;;;;;;;;;5026376;28;20515;-37
2022/01/11 10:50:28;;;;;;;2.70;2.25;;;;;;;;;;5026041;28;20037;-36
2022/01/11 10:52:56;;;;;;;2.63;1.85;;;;;;;;;;5026293;28;20053;-37
2022/01/11 10:55:25;;;;;;;3.00;2.00;;;;;;;;;;5026085;28;20064;-35
2022/01/11 10:57:58;;;;;;;2.33;2.00;;;;;;;;;;5025968;28;20029;-36
2022/01/11 11:00:34;;;;;;;3.47;2.13;;;;;;;;;;5025762;28;20063;-35
2022/01/11 11:03:10;;;;;;;3.00;2.08;;;;;;;;;;5025764;28;20037;-35
2022/01/11 11:05:45;;;;;;;3.03;2.30;;;;;;;;;;5024132;28;20025;-33
2022/01/11 11:08:27;;;;;;;2.88;2.10;;;;;;;;;;5025452;28;20046;-34
2022/01/11 11:10:55;;;;;;;2.97;2.17;;;;;;;;;;5025836;28;20037;-38
2022/01/11 11:13:22;;;;;;;3.38;2.25;;;;;;;;;;5025517;28;20025;-34
2022/01/11 11:15:51;;;;;;;2.60;2.13;;;;;;;;;;5025998;28;20025;-36
2022/01/11 11:18:28;;;;;;;2.85;2.25;;;;;;;;;;5025127;28;20117;-30
2022/01/11 11:20:53;;;;;;;3.38;2.28;;;;;;;;;;5025411;28;20060;-40
2022/01/11 11:23:19;;;;;;;3.00;2.10;;;;;;;;;;5025132;28;20796;-38
2022/01/11 11:25:45;;;;;;;3.45;2.30;;;;;;;;;;5025203;28;20025;-33
2022/01/11 11:28:10;;;;;;;2.78;2.20;;;;;;;;;;5025825;28;20138;-32
2022/01/11 11:30:36;;;;;;;2.72;1.90;;;;;;;;;;5025216;28;20079;-39
2022/01/11 11:33:01;;;;;;;3.95;2.08;;;;;;;;;;5025060;28;20519;-38
2022/01/11 11:35:28;;;;;;;3.13;2.25;;;;;;;;;;5025365;28;20081;-32
2022/01/11 11:37:57;;;;;;;5.25;2.45;;;;;;;;;;5025322;28;20033;-32
2022/01/11 11:40:24;;;;;;;4.07;2.30;;;;;;;;;;5024821;28;20030;-38
2022/01/11 11:42:55;;;;;;;3.80;2.50;;;;;;;;;;5024115;28;20029;-33
2022/01/11 11:45:26;;;;;;;3.25;2.03;;;;;;;;;;5025100;28;20053;-32
2022/01/11 11:47:56;;;;;;;3.88;2.45;;;;;;;;;;5024940;28;20496;-36
2022/01/11 11:50:22;;;;;;;3.03;2.30;;;;;;;;;;5007493;28;20038;-37
2022/01/11 11:52:50;;;;;;;3.97;2.33;;;;;;;;;;5025099;28;20036;-35
2022/01/11 11:55:15;;;;;;;3.25;2.30;;;;;;;;;;5025097;28;20026;-32
2022/01/11 11:57:41;;;;;;;3.13;2.38;;;;;;;;;;5025151;28;20029;-35
2022/01/11 12:00:31;;;;;;;3.05;2.28;;;;;;;;;;5025080;28;20030;-37
2022/01/11 12:03:04;;;;;;;3.10;2.33;;;;;;;;;;5016353;28;20041;-33
2022/01/11 12:05:36;;;;;;;3.30;2.30;;;;;;;;;;5023351;28;20033;-32
2022/01/11 12:08:30;;;;;;;2.58;2.13;;;;;;;;;;5024494;28;20033;-36
2022/01/11 12:10:57;;;;;;;2.85;2.17;;;;;;;;;;5025085;28;20044;-35
2022/01/11 12:13:38;;;;;;;3.15;2.25;;;;;;;;;;5024816;28;20029;-33
2022/01/11 12:16:23;;;;;;;2.95;2.45;;;;;;;;;;5024757;28;20037;-33
2022/01/11 12:18:53;;;;;;;3.42;2.58;;;;;;;;;;5023743;28;20072;-32
2022/01/11 12:21:20;;;;;;;2.97;2.40;;;;;;;;;;5025068;28;20033;-37
2022/01/11 12:23:47;;;;;;;3.00;2.17;;;;;;;;;;5024585;28;20753;-34
2022/01/11 12:26:19;;;;;;;2.88;2.30;;;;;;;;;;5024255;28;20091;-36
2022/01/11 12:29:08;;;;;;;4.85;2.88;;;;;;;;;;5024860;28;20029;-32
2022/01/11 12:31:46;;;;;;;4.20;2.88;;;;;;;;;;5024132;28;20033;-32
2022/01/11 12:34:13;;;;;;;4.80;3.35;;;;;;;;;;5024361;28;20463;-39
2022/01/11 12:36:56;;;;;;;4.00;3.20;;;;;;;;;;5024610;28;20110;-36
2022/01/11 12:39:23;;;;;;;4.10;3.30;;;;;;;;;;5024674;28;20041;-34
2022/01/11 12:41:48;;;;;;;4.97;3.20;;;;;;;;;;5024432;28;20488;-38
2022/01/11 12:44:21;;;;;;;4.88;3.88;;;;;;;;;;5024646;28;20036;-39
2022/01/11 12:46:57;;;;;;;5.68;3.65;;;;;;;;;;5027076;28;20111;-35
2022/01/11 12:49:23;;;;;;;5.25;3.70;;;;;;;;;;5028358;28;20034;-36
2022/01/11 12:51:57;;;;;;;5.00;3.28;;;;;;;;;;5027942;28;20526;-30
2022/01/11 12:54:30;;;;;;;4.85;3.53;;;;;;;;;;5028137;28;20027;-34
2022/01/11 12:57:21;;;;;;;5.40;3.78;;;;;;;;;;5028288;28;20517;-33
2022/01/11 12:59:51;;;;;;;6.85;4.35;;;;;;;;;;5027816;28;20510;-39
2022/01/11 13:02:23;;;;;;;5.35;3.92;;;;;;;;;;5027905;28;20094;-36
2022/01/11 13:04:56;;;;;;;6.70;4.75;;;;;;;;;;5028156;28;20116;-37
2022/01/11 13:07:27;;;;;;;6.85;4.47;;;;;;;;;;5027995;28;20029;-35
2022/01/11 13:10:12;;;;;;;6.60;4.55;;;;;;;;;;5027814;28;20037;-37
2022/01/11 13:12:39;;;;;;;6.30;4.53;;;;;;;;;;5027785;28;20220;-36
2022/01/11 13:15:31;;;;;;;7.13;4.95;;;;;;;;;;5028003;28;20027;-39
2022/01/11 13:18:09;;;;;;;6.80;4.88;;;;;;;;;;5027714;28;20065;-37
2022/01/11 13:20:43;;;;;;;6.68;4.80;;;;;;;;;;5027985;28;20038;-36
2022/01/11 13:23:26;;;;;;;6.85;4.80;;;;;;;;;;5027900;28;20026;-39
2022/01/11 13:25:52;;;;;;;;;;;;;;;;;;5028106;28;20519;-37
2022/01/11 13:28:22;;;;;;;6.22;4.22;;;;;;;;;;5027776;28;19917;-37
2022/01/11 13:30:51;;;;;;;7.45;4.85;;;;;;;;;;5027818;28;20029;-36
2022/01/11 13:33:30;;;;;;;6.70;4.50;;;;;;;;;;5026717;28;20060;-39
2022/01/11 13:36:12;;;;;;;6.05;4.40;;;;;;;;;;5027084;28;20479;-31
2022/01/11 13:38:40;;;;;;;6.57;4.82;;;;;;;;;;5027297;28;20021;-39
2022/01/11 13:41:07;;;;;;;5.55;3.97;;;;;;;;;;5027183;28;20025;-37
2022/01/11 13:43:40;;;;;;;6.50;4.47;;;;;;;;;;5027352;28;20106;-38
2022/01/11 13:46:21;;;;;;;6.00;4.18;;;;;;;;;;5027315;28;20492;-35
2022/01/11 13:48:47;;;;;;;5.40;4.03;;;;;;;;;;5027275;28;20113;-38
2022/01/11 13:51:13;;;;;;;4.63;3.78;;;;;;;;;;5026850;28;20112;-39
2022/01/11 13:53:39;;;;;;;5.15;4.10;;;;;;;;;;5029946;28;20101;-34
2022/01/11 13:56:15;;;;;;;5.65;3.97;;;;;;;;;;5046836;28;20045;-35
2022/01/11 13:58:48;;;;;;;5.30;3.95;;;;;;;;;;5046823;28;20040;-32
2022/01/11 14:01:14;;;;;;;5.25;3.97;;;;;;;;;;5046723;28;20509;-38
2022/01/11 14:03:40;;;;;;;5.10;3.65;;;;;;;;;;5046790;28;20111;-36
2022/01/11 14:06:24;;;;;;;5.10;3.72;;;;;;;;;;5047017;28;20120;-40
2022/01/11 14:08:53;;;;;;;4.57;3.72;;;;;;;;;;5046854;28;20434;-38
2022/01/11 14:11:31;;;;;;;5.22;3.70;;;;;;;;;;5046854;28;20033;-39
2022/01/11 14:14:01;;;;;;;5.00;3.67;;;;;;;;;;5046806;28;20029;-37
2022/01/11 14:16:27;;;;;;;5.05;3.65;;;;;;;;;;5044912;28;20021;-40
2022/01/11 14:19:08;;;;;;;5.40;3.65;;;;;;;;;;5045588;28;20066;-35
2022/01/11 14:21:50;;;;;;;5.03;3.92;;;;;;;;;;5046519;28;20092;-37
2022/01/11 14:24:17;;;;;;;4.75;3.70;;;;;;;;;;5045455;28;20114;-37
2022/01/11 14:26:42;;;;;;;5.03;3.83;;;;;;;;;;5045721;28;20033;-37
2022/01/11 14:29:08;;;;;;;6.78;4.47;;;;;;;;;;5046542;28;20028;-36
2022/01/11 14:31:35;;;;;;;5.75;3.75;;;;;;;;;;5033553;28;20392;-38
2022/01/11 14:34:08;;;;;;;4.93;3.67;;;;;;;;;;5026537;28;20424;-39
2022/01/11 14:36:34;;;;;;;;;;;;;;;;;;5026976;28;20033;-37
2022/01/11 14:39:10;;;;;;;4.93;3.65;;;;;;;;;;5026467;28;20375;-35
2022/01/11 14:41:46;;;;;;;5.05;3.63;;;;;;;;;;5026420;28;20021;-34
2022/01/11 14:44:25;;;;;;;4.97;3.80;;;;;;;;;;5026348;28;20021;-39
2022/01/11 14:46:54;;;;;;;5.18;4.00;;;;;;;;;;5025861;28;20029;-33